sensor_id;sensor_type;location;lat;lon;timestamp;pressure;altitude;pressure_sealevel;temperature;humidity
49979;BME280;35869;50.990;6.962;2023-05-10T00:04:19;100534.94;;;13.55;100.00
49979;BME280;35869;50.990;6.962;2023-05-10T00:09:19;100535.09;;;13.52;100.00
49979;BME280;35869;50.990;6.962;2023-05-10T00:14:19;100529.16;;;13.50;100.00
49979;BME280;35869;50.990;6.962;2023-05-10T00:19:19;100527.38;;;13.50;100.00
49979;BME280;35869;50.990;6.962;2023-05-10T00:24:20;100531.75;;;13.50;100.00
49979;BME280;35869;50.990;6.962;2023-05-10T00:29:20;100529.22;;;13.48;100.00
49979;BME280;35869;50.990;6.962;2023-05-10T00:34:20;100527.53;;;13.47;100.00
49979;BME280;35869;50.990;6.962;2023-05-10T00:39:20;100533.59;;;13.48;100.00
49979;BME280;35869;50.990;6.962;2023-05-10T00:44:20;100529.31;;;13.47;100.00
49979;BME280;35869;50.990;6.962;2023-05-10T00:49:21;100528.31;;;13.49;100.00
49979;BME280;35869;50.990;6.962;2023-05-10T00:54:21;100529.41;;;13.45;100.00
49979;BME280;35869;50.990;6.962;2023-05-10T00:59:21;100525.22;;;13.43;100.00
49979;BME280;35869;50.990;6.962;2023-05-10T01:04:21;100531.09;;;13.46;100.00
49979;BME280;35869;50.990;6.962;2023-05-10T01:09:22;100531.75;;;13.50;100.00
49979;BME280;35869;50.990;6.962;2023-05-10T01:14:22;100522.31;;;13.47;100.00
49979;BME280;35869;50.990;6.962;2023-05-10T01:19:25;100527.28;;;13.52;100.00
49979;BME280;35869;50.990;6.962;2023-05-10T01:35:08;100534.72;;;13.44;100.00
49979;BME280;35869;50.990;6.962;2023-05-10T01:40:19;100531.81;;;13.48;100.00
49979;BME280;35869;50.990;6.962;2023-05-10T01:45:37;100536.97;;;13.50;100.00
49979;BME280;35869;50.990;6.962;2023-05-10T01:50:43;100543.59;;;13.55;100.00
49979;BME280;35869;50.990;6.962;2023-05-10T01:55:46;100543.13;;;13.49;100.00
49979;BME280;35869;50.990;6.962;2023-05-10T02:00:49;100537.34;;;13.44;100.00
49979;BME280;35869;50.990;6.962;2023-05-10T02:05:52;100538.81;;;13.48;100.00
49979;BME280;35869;50.990;6.962;2023-05-10T02:10:55;100537.16;;;13.47;100.00
49979;BME280;35869;50.990;6.962;2023-05-10T02:15:56;100543.50;;;13.43;100.00
49979;BME280;35869;50.990;6.962;2023-05-10T02:20:57;100546.13;;;13.43;100.00
49979;BME280;35869;50.990;6.962;2023-05-10T02:26:00;100545.25;;;13.42;100.00
49979;BME280;35869;50.990;6.962;2023-05-10T02:31:01;100559.16;;;13.43;100.00
49979;BME280;35869;50.990;6.962;2023-05-10T02:36:02;100563.81;;;13.38;100.00
49979;BME280;35869;50.990;6.962;2023-05-10T02:41:04;100562.09;;;13.37;100.00
49979;BME280;35869;50.990;6.962;2023-05-10T02:46:05;100560.72;;;13.31;100.00
49979;BME280;35869;50.990;6.962;2023-05-10T02:51:07;100566.00;;;13.29;100.00
49979;BME280;35869;50.990;6.962;2023-05-10T02:56:15;100567.53;;;13.33;100.00
49979;BME280;35869;50.990;6.962;2023-05-10T03:01:19;100565.50;;;13.39;100.00
49979;BME280;35869;50.990;6.962;2023-05-10T03:06:19;100569.38;;;13.31;100.00
49979;BME280;35869;50.990;6.962;2023-05-10T03:11:32;100558.38;;;13.26;100.00
49979;BME280;35869;50.990;6.962;2023-05-10T03:16:53;100564.34;;;13.28;100.00
49979;BME280;35869;50.990;6.962;2023-05-10T03:21:59;100576.72;;;13.25;100.00
49979;BME280;35869;50.990;6.962;2023-05-10T03:27:04;100574.19;;;13.23;100.00
49979;BME280;35869;50.990;6.962;2023-05-10T03:32:05;100588.91;;;13.24;100.00
49979;BME280;35869;50.990;6.962;2023-05-10T03:37:05;100586.06;;;13.29;100.00
49979;BME280;35869;50.990;6.962;2023-05-10T03:42:06;100585.41;;;13.25;100.00
49979;BME280;35869;50.990;6.962;2023-05-10T03:47:06;100590.69;;;13.24;100.00
49979;BME280;35869;50.990;6.962;2023-05-10T03:52:06;100588.34;;;13.19;100.00
49979;BME280;35869;50.990;6.962;2023-05-10T03:57:06;100592.78;;;13.17;100.00
49979;BME280;35869;50.990;6.962;2023-05-10T04:02:06;100594.47;;;13.18;100.00
49979;BME280;35869;50.990;6.962;2023-05-10T04:07:07;100590.06;;;13.19;100.00
49979;BME280;35869;50.990;6.962;2023-05-10T04:12:07;100594.13;;;13.24;100.00
49979;BME280;35869;50.990;6.962;2023-05-10T04:17:07;100596.94;;;13.21;100.00
49979;BME280;35869;50.990;6.962;2023-05-10T04:22:07;100594.66;;;13.15;100.00
49979;BME280;35869;50.990;6.962;2023-05-10T04:27:07;100582.34;;;13.17;100.00
49979;BME280;35869;50.990;6.962;2023-05-10T04:32:08;100592.78;;;13.17;100.00
49979;BME280;35869;50.990;6.962;2023-05-10T04:37:08;100602.91;;;13.23;100.00
49979;BME280;35869;50.990;6.962;2023-05-10T04:42:08;100598.34;;;13.27;100.00
49979;BME280;35869;50.990;6.962;2023-05-10T04:47:08;100604.41;;;13.27;100.00
49979;BME280;35869;50.990;6.962;2023-05-10T04:52:08;100612.41;;;13.24;100.00
49979;BME280;35869;50.990;6.962;2023-05-10T04:57:09;100614.13;;;13.25;100.00
49979;BME280;35869;50.990;6.962;2023-05-10T05:02:09;100615.84;;;13.25;100.00
49979;BME280;35869;50.990;6.962;2023-05-10T05:07:09;100623.63;;;13.26;100.00
49979;BME280;35869;50.990;6.962;2023-05-10T05:12:09;100632.03;;;13.31;100.00
49979;BME280;35869;50.990;6.962;2023-05-10T05:17:10;100642.28;;;13.34;100.00
49979;BME280;35869;50.990;6.962;2023-05-10T05:22:10;100642.38;;;13.33;100.00
49979;BME280;35869;50.990;6.962;2023-05-10T05:27:10;100638.94;;;13.32;100.00
49979;BME280;35869;50.990;6.962;2023-05-10T05:32:10;100647.34;;;13.38;100.00
49979;BME280;35869;50.990;6.962;2023-05-10T05:37:19;100652.72;;;13.34;100.00
49979;BME280;35869;50.990;6.962;2023-05-10T05:42:19;100656.28;;;13.33;100.00
49979;BME280;35869;50.990;6.962;2023-05-10T05:47:19;100655.81;;;13.41;100.00
49979;BME280;35869;50.990;6.962;2023-05-10T05:52:19;100660.31;;;13.39;100.00
49979;BME280;35869;50.990;6.962;2023-05-10T05:57:20;100665.44;;;13.41;100.00
49979;BME280;35869;50.990;6.962;2023-05-10T06:02:20;100660.97;;;13.43;100.00
49979;BME280;35869;50.990;6.962;2023-05-10T06:07:20;100679.16;;;13.44;100.00
49979;BME280;35869;50.990;6.962;2023-05-10T06:12:20;100684.63;;;13.40;100.00
49979;BME280;35869;50.990;6.962;2023-05-10T06:17:20;100692.47;;;13.40;100.00
49979;BME280;35869;50.990;6.962;2023-05-10T06:22:21;100698.19;;;13.46;100.00
49979;BME280;35869;50.990;6.962;2023-05-10T06:27:21;100706.13;;;13.45;100.00
49979;BME280;35869;50.990;6.962;2023-05-10T06:32:21;100703.50;;;13.45;100.00
49979;BME280;35869;50.990;6.962;2023-05-10T06:37:21;100709.66;;;13.44;100.00
49979;BME280;35869;50.990;6.962;2023-05-10T06:42:21;100710.97;;;13.51;100.00
49979;BME280;35869;50.990;6.962;2023-05-10T06:47:22;100717.56;;;13.42;100.00
49979;BME280;35869;50.990;6.962;2023-05-10T06:52:22;100720.75;;;13.47;100.00
49979;BME280;35869;50.990;6.962;2023-05-10T06:57:22;100725.91;;;13.49;100.00
49979;BME280;35869;50.990;6.962;2023-05-10T07:02:22;100730.53;;;13.44;100.00
49979;BME280;35869;50.990;6.962;2023-05-10T07:07:22;100728.31;;;13.52;100.00
49979;BME280;35869;50.990;6.962;2023-05-10T07:12:23;100728.31;;;13.52;100.00
49979;BME280;35869;50.990;6.962;2023-05-10T07:17:23;100736.06;;;13.53;100.00
49979;BME280;35869;50.990;6.962;2023-05-10T07:22:24;100725.97;;;13.47;100.00
49979;BME280;35869;50.990;6.962;2023-05-10T07:27:25;100736.00;;;13.55;100.00
49979;BME280;35869;50.990;6.962;2023-05-10T07:32:25;100742.13;;;13.54;100.00
49979;BME280;35869;50.990;6.962;2023-05-10T07:37:25;100742.72;;;13.59;100.00
49979;BME280;35869;50.990;6.962;2023-05-10T07:42:25;100741.88;;;13.58;100.00
49979;BME280;35869;50.990;6.962;2023-05-10T07:47:25;100741.63;;;13.63;100.00
49979;BME280;35869;50.990;6.962;2023-05-10T07:52:26;100743.78;;;13.71;100.00
49979;BME280;35869;50.990;6.962;2023-05-10T07:57:26;100746.16;;;13.75;100.00
49979;BME280;35869;50.990;6.962;2023-05-10T08:02:26;100747.91;;;13.75;100.00
49979;BME280;35869;50.990;6.962;2023-05-10T08:07:26;100753.06;;;13.76;100.00
49979;BME280;35869;50.990;6.962;2023-05-10T08:12:26;100759.94;;;13.77;100.00
49979;BME280;35869;50.990;6.962;2023-05-10T08:17:27;100753.72;;;13.80;100.00
49979;BME280;35869;50.990;6.962;2023-05-10T08:22:27;100758.13;;;13.79;100.00
49979;BME280;35869;50.990;6.962;2023-05-10T08:27:27;100761.47;;;13.81;100.00
49979;BME280;35869;50.990;6.962;2023-05-10T08:32:27;100765.19;;;13.77;100.00
49979;BME280;35869;50.990;6.962;2023-05-10T08:37:29;100775.47;;;13.80;100.00
49979;BME280;35869;50.990;6.962;2023-05-10T08:42:30;100777.06;;;13.83;100.00
49979;BME280;35869;50.990;6.962;2023-05-10T08:47:37;100780.69;;;13.80;100.00
49979;BME280;35869;50.990;6.962;2023-05-10T08:52:40;100787.25;;;13.87;100.00
49979;BME280;35869;50.990;6.962;2023-05-10T08:57:40;100781.94;;;13.89;100.00
49979;BME280;35869;50.990;6.962;2023-05-10T09:02:41;100796.41;;;13.95;100.00
49979;BME280;35869;50.990;6.962;2023-05-10T09:07:43;100796.16;;;13.99;100.00
49979;BME280;35869;50.990;6.962;2023-05-10T09:12:43;100793.44;;;14.01;100.00
49979;BME280;35869;50.990;6.962;2023-05-10T09:17:44;100802.72;;;14.06;100.00
49979;BME280;35869;50.990;6.962;2023-05-10T09:22:45;100803.41;;;14.24;100.00
49979;BME280;35869;50.990;6.962;2023-05-10T09:27:46;100804.94;;;14.28;100.00
49979;BME280;35869;50.990;6.962;2023-05-10T09:32:47;100812.06;;;14.40;100.00
49979;BME280;35869;50.990;6.962;2023-05-10T09:37:48;100823.28;;;14.43;100.00
49979;BME280;35869;50.990;6.962;2023-05-10T09:42:55;100821.41;;;14.45;100.00
49979;BME280;35869;50.990;6.962;2023-05-10T09:47:56;100823.09;;;14.46;100.00
49979;BME280;35869;50.990;6.962;2023-05-10T09:52:57;100822.03;;;14.64;100.00
49979;BME280;35869;50.990;6.962;2023-05-10T09:57:59;100828.41;;;14.74;100.00
49979;BME280;35869;50.990;6.962;2023-05-10T10:03:01;100831.03;;;14.74;100.00
49979;BME280;35869;50.990;6.962;2023-05-10T10:08:04;100832.34;;;14.81;100.00
49979;BME280;35869;50.990;6.962;2023-05-10T10:13:05;100843.38;;;14.86;100.00
49979;BME280;35869;50.990;6.962;2023-05-10T10:18:06;100835.53;;;14.86;100.00
49979;BME280;35869;50.990;6.962;2023-05-10T10:23:07;100842.31;;;14.89;100.00
49979;BME280;35869;50.990;6.962;2023-05-10T10:28:26;100850.84;;;14.92;100.00
49979;BME280;35869;50.990;6.962;2023-05-10T10:33:56;100841.25;;;15.07;100.00
49979;BME280;35869;50.990;6.962;2023-05-10T10:39:00;100826.28;;;15.09;100.00
49979;BME280;35869;50.990;6.962;2023-05-10T10:44:23;100830.94;;;15.33;100.00
49979;BME280;35869;50.990;6.962;2023-05-10T10:49:24;100837.75;;;15.35;100.00
49979;BME280;35869;50.990;6.962;2023-05-10T10:54:28;100831.94;;;15.44;100.00
49979;BME280;35869;50.990;6.962;2023-05-10T10:59:28;100830.81;;;15.63;100.00
49979;BME280;35869;50.990;6.962;2023-05-10T11:04:28;100827.25;;;15.91;100.00
49979;BME280;35869;50.990;6.962;2023-05-10T11:09:39;100834.31;;;16.03;100.00
49979;BME280;35869;50.990;6.962;2023-05-10T11:14:39;100847.78;;;15.84;100.00
49979;BME280;35869;50.990;6.962;2023-05-10T11:20:06;100848.72;;;15.83;100.00
49979;BME280;35869;50.990;6.962;2023-05-10T11:25:06;100851.88;;;15.88;100.00
49979;BME280;35869;50.990;6.962;2023-05-10T11:30:08;100859.66;;;15.90;100.00
49979;BME280;35869;50.990;6.962;2023-05-10T11:35:11;100859.97;;;15.71;100.00
49979;BME280;35869;50.990;6.962;2023-05-10T11:40:11;100863.25;;;15.75;100.00
49979;BME280;35869;50.990;6.962;2023-05-10T11:45:12;100866.53;;;15.78;100.00
49979;BME280;35869;50.990;6.962;2023-05-10T11:50:12;100865.34;;;15.96;100.00
49979;BME280;35869;50.990;6.962;2023-05-10T11:55:12;100870.69;;;15.95;100.00
49979;BME280;35869;50.990;6.962;2023-05-10T12:00:13;100859.81;;;16.01;100.00
49979;BME280;35869;50.990;6.962;2023-05-10T12:05:14;100858.09;;;16.27;100.00
49979;BME280;35869;50.990;6.962;2023-05-10T12:10:14;100862.63;;;16.25;100.00
49979;BME280;35869;50.990;6.962;2023-05-10T12:15:20;100864.88;;;16.44;99.55
49979;BME280;35869;50.990;6.962;2023-05-10T12:20:22;100867.06;;;16.37;100.00
49979;BME280;35869;50.990;6.962;2023-05-10T12:25:24;100869.47;;;16.53;99.64
49979;BME280;35869;50.990;6.962;2023-05-10T12:30:31;100866.34;;;16.61;99.55
49979;BME280;35869;50.990;6.962;2023-05-10T12:35:32;100870.78;;;16.60;98.28
49979;BME280;35869;50.990;6.962;2023-05-10T12:40:32;100878.47;;;16.76;96.50
49979;BME280;35869;50.990;6.962;2023-05-10T12:45:32;100881.16;;;16.62;96.88
49979;BME280;35869;50.990;6.962;2023-05-10T12:50:33;100880.78;;;16.93;96.46
49979;BME280;35869;50.990;6.962;2023-05-10T12:55:33;100885.31;;;17.17;94.04
49979;BME280;35869;50.990;6.962;2023-05-10T13:00:33;100875.94;;;17.38;94.41
49979;BME280;35869;50.990;6.962;2023-05-10T13:05:34;100890.97;;;17.11;94.53
49979;BME280;35869;50.990;6.962;2023-05-10T13:10:34;100884.81;;;17.74;88.56
49979;BME280;35869;50.990;6.962;2023-05-10T13:15:34;100885.59;;;17.87;88.64
49979;BME280;35869;50.990;6.962;2023-05-10T13:20:35;100882.38;;;18.07;90.18
49979;BME280;35869;50.990;6.962;2023-05-10T13:25:35;100876.88;;;18.10;88.54
49979;BME280;35869;50.990;6.962;2023-05-10T13:30:35;100879.34;;;18.25;92.51
49979;BME280;35869;50.990;6.962;2023-05-10T13:35:35;100879.91;;;18.52;77.91
49979;BME280;35869;50.990;6.962;2023-05-10T13:40:35;100881.88;;;18.26;91.28
49979;BME280;35869;50.990;6.962;2023-05-10T13:45:36;100881.50;;;17.96;89.02
49979;BME280;35869;50.990;6.962;2023-05-10T13:50:36;100881.94;;;17.90;88.50
49979;BME280;35869;50.990;6.962;2023-05-10T13:55:36;100884.13;;;18.20;87.66
49979;BME280;35869;50.990;6.962;2023-05-10T14:00:36;100876.22;;;17.96;89.42
49979;BME280;35869;50.990;6.962;2023-05-10T14:05:37;100875.94;;;17.88;86.65
49979;BME280;35869;50.990;6.962;2023-05-10T14:10:37;100864.81;;;17.71;89.12
49979;BME280;35869;50.990;6.962;2023-05-10T14:15:37;100862.34;;;18.18;87.77
49979;BME280;35869;50.990;6.962;2023-05-10T14:20:37;100855.50;;;18.15;88.64
49979;BME280;35869;50.990;6.962;2023-05-10T14:25:39;100860.28;;;18.45;86.80
49979;BME280;35869;50.990;6.962;2023-05-10T14:30:40;100863.66;;;18.12;86.86
49979;BME280;35869;50.990;6.962;2023-05-10T14:35:40;100864.03;;;18.19;88.68
49979;BME280;35869;50.990;6.962;2023-05-10T14:40:40;100872.47;;;18.11;86.66
49979;BME280;35869;50.990;6.962;2023-05-10T14:45:41;100864.03;;;18.54;83.24
49979;BME280;35869;50.990;6.962;2023-05-10T14:50:41;100866.59;;;18.07;86.80
49979;BME280;35869;50.990;6.962;2023-05-10T14:55:41;100867.63;;;18.18;84.75
49979;BME280;35869;50.990;6.962;2023-05-10T15:00:42;100865.63;;;18.32;85.71
49979;BME280;35869;50.990;6.962;2023-05-10T15:05:42;100861.56;;;18.39;84.78
49979;BME280;35869;50.990;6.962;2023-05-10T15:10:42;100866.69;;;18.30;89.11
49979;BME280;35869;50.990;6.962;2023-05-10T15:15:42;100875.84;;;18.13;90.72
49979;BME280;35869;50.990;6.962;2023-05-10T15:20:42;100872.59;;;18.09;91.49
49979;BME280;35869;50.990;6.962;2023-05-10T15:25:43;100871.56;;;17.99;90.39
49979;BME280;35869;50.990;6.962;2023-05-10T15:30:43;100873.22;;;17.89;90.78
49979;BME280;35869;50.990;6.962;2023-05-10T15:35:43;100875.09;;;17.87;90.36
49979;BME280;35869;50.990;6.962;2023-05-10T15:40:43;100880.28;;;17.63;93.05
49979;BME280;35869;50.990;6.962;2023-05-10T15:45:43;100891.63;;;17.64;92.92
49979;BME280;35869;50.990;6.962;2023-05-10T15:50:44;100895.44;;;17.72;90.47
49979;BME280;35869;50.990;6.962;2023-05-10T15:55:44;100891.13;;;17.58;93.78
49979;BME280;35869;50.990;6.962;2023-05-10T16:00:44;100891.03;;;17.60;93.53
49979;BME280;35869;50.990;6.962;2023-05-10T16:05:44;100891.66;;;17.51;91.95
49979;BME280;35869;50.990;6.962;2023-05-10T16:10:44;100887.19;;;17.27;94.55
49979;BME280;35869;50.990;6.962;2023-05-10T16:15:45;100894.53;;;17.22;93.31
49979;BME280;35869;50.990;6.962;2023-05-10T16:20:45;100896.22;;;17.36;91.71
49979;BME280;35869;50.990;6.962;2023-05-10T16:25:45;100906.13;;;17.20;96.04
49979;BME280;35869;50.990;6.962;2023-05-10T16:30:46;100897.69;;;17.40;87.21
49979;BME280;35869;50.990;6.962;2023-05-10T16:35:46;100902.72;;;17.43;87.69
49979;BME280;35869;50.990;6.962;2023-05-10T16:40:47;100896.22;;;17.36;91.59
49979;BME280;35869;50.990;6.962;2023-05-10T16:45:47;100903.59;;;17.31;93.15
49979;BME280;35869;50.990;6.962;2023-05-10T16:50:47;100910.41;;;17.21;92.56
49979;BME280;35869;50.990;6.962;2023-05-10T16:55:47;100922.19;;;17.28;92.61
49979;BME280;35869;50.990;6.962;2023-05-10T17:00:47;100930.38;;;17.23;86.97
49979;BME280;35869;50.990;6.962;2023-05-10T17:05:48;100938.16;;;17.12;87.75
49979;BME280;35869;50.990;6.962;2023-05-10T17:10:48;100932.38;;;17.07;88.48
49979;BME280;35869;50.990;6.962;2023-05-10T17:15:48;100939.38;;;16.94;91.38
49979;BME280;35869;50.990;6.962;2023-05-10T17:20:49;100940.31;;;16.80;91.17
49979;BME280;35869;50.990;6.962;2023-05-10T17:25:49;100952.91;;;16.75;91.90
49979;BME280;35869;50.990;6.962;2023-05-10T17:30:56;100960.84;;;16.61;94.18
49979;BME280;35869;50.990;6.962;2023-05-10T17:35:56;100953.41;;;16.67;89.94
49979;BME280;35869;50.990;6.962;2023-05-10T17:40:57;100957.22;;;16.49;92.13
49979;BME280;35869;50.990;6.962;2023-05-10T17:45:57;100965.28;;;16.46;94.64
49979;BME280;35869;50.990;6.962;2023-05-10T17:50:57;100971.38;;;16.46;89.44
49979;BME280;35869;50.990;6.962;2023-05-10T17:55:57;100970.19;;;16.38;90.94
49979;BME280;35869;50.990;6.962;2023-05-10T18:00:57;100982.09;;;16.29;90.95
49979;BME280;35869;50.990;6.962;2023-05-10T18:05:58;100975.28;;;16.26;88.48
49979;BME280;35869;50.990;6.962;2023-05-10T18:10:58;100975.69;;;16.20;93.79
49979;BME280;35869;50.990;6.962;2023-05-10T18:15:58;100974.06;;;16.18;93.93
49979;BME280;35869;50.990;6.962;2023-05-10T18:20:58;100981.41;;;16.13;90.53
49979;BME280;35869;50.990;6.962;2023-05-10T18:25:58;101002.00;;;16.19;94.97
49979;BME280;35869;50.990;6.962;2023-05-10T18:30:59;100996.22;;;15.99;95.68
49979;BME280;35869;50.990;6.962;2023-05-10T18:35:59;100996.59;;;15.93;96.86
49979;BME280;35869;50.990;6.962;2023-05-10T18:40:59;100998.66;;;15.88;96.36
49979;BME280;35869;50.990;6.962;2023-05-10T18:45:59;101001.28;;;15.88;96.85
49979;BME280;35869;50.990;6.962;2023-05-10T18:51:00;101016.94;;;15.76;99.81
49979;BME280;35869;50.990;6.962;2023-05-10T18:56:00;101016.47;;;15.69;100.00
49979;BME280;35869;50.990;6.962;2023-05-10T19:01:00;101014.03;;;15.66;100.00
49979;BME280;35869;50.990;6.962;2023-05-10T19:06:00;101013.63;;;15.58;100.00
49979;BME280;35869;50.990;6.962;2023-05-10T19:11:00;101019.22;;;15.52;100.00
49979;BME280;35869;50.990;6.962;2023-05-10T19:16:05;101030.06;;;15.45;100.00
49979;BME280;35869;50.990;6.962;2023-05-10T19:21:09;101043.53;;;15.39;100.00
49979;BME280;35869;50.990;6.962;2023-05-10T19:26:10;101045.69;;;15.33;100.00
49979;BME280;35869;50.990;6.962;2023-05-10T19:31:10;101049.41;;;15.29;100.00
49979;BME280;35869;50.990;6.962;2023-05-10T19:36:10;101047.97;;;15.23;100.00
49979;BME280;35869;50.990;6.962;2023-05-10T19:41:11;101048.34;;;15.17;100.00
49979;BME280;35869;50.990;6.962;2023-05-10T19:46:11;101058.31;;;15.10;100.00
49979;BME280;35869;50.990;6.962;2023-05-10T19:51:11;101056.91;;;15.05;100.00
49979;BME280;35869;50.990;6.962;2023-05-10T19:56:12;101061.66;;;14.98;100.00
49979;BME280;35869;50.990;6.962;2023-05-10T20:01:12;101055.94;;;14.91;100.00
49979;BME280;35869;50.990;6.962;2023-05-10T20:06:12;101061.50;;;14.85;100.00
49979;BME280;35869;50.990;6.962;2023-05-10T20:11:13;101054.09;;;14.78;100.00
49979;BME280;35869;50.990;6.962;2023-05-10T20:16:13;101059.59;;;14.73;100.00
49979;BME280;35869;50.990;6.962;2023-05-10T20:21:14;101057.31;;;14.67;100.00
49979;BME280;35869;50.990;6.962;2023-05-10T20:26:14;101061.13;;;14.61;100.00
49979;BME280;35869;50.990;6.962;2023-05-10T20:31:14;101056.13;;;14.57;100.00
49979;BME280;35869;50.990;6.962;2023-05-10T20:36:14;101055.44;;;14.53;100.00
49979;BME280;35869;50.990;6.962;2023-05-10T20:41:14;101053.16;;;14.47;100.00
49979;BME280;35869;50.990;6.962;2023-05-10T20:46:15;101057.63;;;14.45;100.00
49979;BME280;35869;50.990;6.962;2023-05-10T20:51:15;101057.22;;;14.37;100.00
49979;BME280;35869;50.990;6.962;2023-05-10T20:56:15;101057.38;;;14.34;100.00
49979;BME280;35869;50.990;6.962;2023-05-10T21:01:15;101061.06;;;14.30;100.00
49979;BME280;35869;50.990;6.962;2023-05-10T21:06:16;101066.47;;;14.27;100.00
49979;BME280;35869;50.990;6.962;2023-05-10T21:11:16;101069.34;;;14.22;100.00
49979;BME280;35869;50.990;6.962;2023-05-10T21:16:16;101064.44;;;14.16;100.00
49979;BME280;35869;50.990;6.962;2023-05-10T21:21:16;101062.00;;;14.13;100.00
49979;BME280;35869;50.990;6.962;2023-05-10T21:26:16;101066.63;;;14.08;100.00
49979;BME280;35869;50.990;6.962;2023-05-10T21:31:17;101071.25;;;14.03;100.00
49979;BME280;35869;50.990;6.962;2023-05-10T21:36:17;101070.66;;;13.98;100.00
49979;BME280;35869;50.990;6.962;2023-05-10T21:41:17;101072.56;;;13.94;100.00
49979;BME280;35869;50.990;6.962;2023-05-10T21:46:17;101075.44;;;13.90;100.00
49979;BME280;35869;50.990;6.962;2023-05-10T21:51:18;101073.06;;;13.85;100.00
49979;BME280;35869;50.990;6.962;2023-05-10T21:56:18;101076.84;;;13.79;100.00
49979;BME280;35869;50.990;6.962;2023-05-10T22:01:18;101076.00;;;13.79;100.00
49979;BME280;35869;50.990;6.962;2023-05-10T22:06:18;101076.97;;;13.76;100.00
49979;BME280;35869;50.990;6.962;2023-05-10T22:11:18;101076.38;;;13.71;100.00
49979;BME280;35869;50.990;6.962;2023-05-10T22:16:19;101073.00;;;13.69;100.00
49979;BME280;35869;50.990;6.962;2023-05-10T22:21:19;101069.69;;;13.66;100.00
49979;BME280;35869;50.990;6.962;2023-05-10T22:26:19;101074.25;;;13.62;100.00
49979;BME280;35869;50.990;6.962;2023-05-10T22:31:20;101080.41;;;13.61;100.00
49979;BME280;35869;50.990;6.962;2023-05-10T22:36:20;101076.25;;;13.57;100.00
49979;BME280;35869;50.990;6.962;2023-05-10T22:41:23;101083.56;;;13.50;100.00
49979;BME280;35869;50.990;6.962;2023-05-10T22:46:23;101082.75;;;13.48;100.00
49979;BME280;35869;50.990;6.962;2023-05-10T22:51:23;101085.31;;;13.50;100.00
49979;BME280;35869;50.990;6.962;2023-05-10T22:56:24;101087.41;;;13.43;100.00
49979;BME280;35869;50.990;6.962;2023-05-10T23:01:24;101085.63;;;13.44;100.00
49979;BME280;35869;50.990;6.962;2023-05-10T23:06:24;101088.25;;;13.44;100.00
49979;BME280;35869;50.990;6.962;2023-05-10T23:11:25;101088.38;;;13.41;100.00
49979;BME280;35869;50.990;6.962;2023-05-10T23:16:25;101095.38;;;13.40;100.00
49979;BME280;35869;50.990;6.962;2023-05-10T23:21:25;101094.84;;;13.33;100.00
49979;BME280;35869;50.990;6.962;2023-05-10T23:26:25;101092.13;;;13.35;100.00
49979;BME280;35869;50.990;6.962;2023-05-10T23:31:25;101093.91;;;13.34;100.00
49979;BME280;35869;50.990;6.962;2023-05-10T23:36:26;101088.78;;;13.33;100.00
49979;BME280;35869;50.990;6.962;2023-05-10T23:41:26;101093.06;;;13.34;100.00
49979;BME280;35869;50.990;6.962;2023-05-10T23:46:26;101092.31;;;13.32;100.00
49979;BME280;35869;50.990;6.962;2023-05-10T23:51:26;101085.25;;;13.34;100.00
49979;BME280;35869;50.990;6.962;2023-05-10T23:56:27;101085.53;;;13.28;100.00
